sensor_id;sensor_type;location;lat;lon;timestamp;P1;durP1;ratioP1;P2;durP2;ratioP2
4375;SDS011;2202;50.866;12.750;2023-06-10T00:00:23;19.60;;;15.27;;
4375;SDS011;2202;50.866;12.750;2023-06-10T00:02:51;17.23;;;15.63;;
4375;SDS011;2202;50.866;12.750;2023-06-10T00:05:19;16.57;;;14.97;;
4375;SDS011;2202;50.866;12.750;2023-06-10T00:07:46;18.87;;;17.10;;
4375;SDS011;2202;50.866;12.750;2023-06-10T00:10:14;18.83;;;17.13;;
4375;SDS011;2202;50.866;12.750;2023-06-10T00:12:41;17.00;;;15.47;;
4375;SDS011;2202;50.866;12.750;2023-06-10T00:15:09;18.93;;;17.20;;
4375;SDS011;2202;50.866;12.750;2023-06-10T00:17:36;20.07;;;18.10;;
4375;SDS011;2202;50.866;12.750;2023-06-10T00:20:04;20.63;;;18.53;;
4375;SDS011;2202;50.866;12.750;2023-06-10T00:22:35;20.53;;;18.13;;
4375;SDS011;2202;50.866;12.750;2023-06-10T00:25:02;19.30;;;17.47;;
4375;SDS011;2202;50.866;12.750;2023-06-10T00:27:30;17.87;;;16.07;;
4375;SDS011;2202;50.866;12.750;2023-06-10T00:30:00;19.10;;;17.30;;
4375;SDS011;2202;50.866;12.750;2023-06-10T00:32:29;20.33;;;18.33;;
4375;SDS011;2202;50.866;12.750;2023-06-10T00:34:56;19.60;;;17.57;;
4375;SDS011;2202;50.866;12.750;2023-06-10T00:37:22;18.03;;;16.43;;
4375;SDS011;2202;50.866;12.750;2023-06-10T00:39:51;18.53;;;16.77;;
4375;SDS011;2202;50.866;12.750;2023-06-10T00:42:18;17.73;;;16.07;;
4375;SDS011;2202;50.866;12.750;2023-06-10T00:44:45;19.50;;;17.33;;
4375;SDS011;2202;50.866;12.750;2023-06-10T00:47:13;20.93;;;18.73;;
4375;SDS011;2202;50.866;12.750;2023-06-10T00:49:40;19.70;;;17.60;;
4375;SDS011;2202;50.866;12.750;2023-06-10T00:52:07;21.90;;;19.80;;
4375;SDS011;2202;50.866;12.750;2023-06-10T00:54:35;20.23;;;18.13;;
4375;SDS011;2202;50.866;12.750;2023-06-10T00:57:04;21.93;;;20.00;;
4375;SDS011;2202;50.866;12.750;2023-06-10T00:59:32;21.53;;;19.23;;
4375;SDS011;2202;50.866;12.750;2023-06-10T01:01:59;22.57;;;20.33;;
4375;SDS011;2202;50.866;12.750;2023-06-10T01:04:27;22.03;;;19.53;;
4375;SDS011;2202;50.866;12.750;2023-06-10T01:06:54;22.30;;;19.13;;
4375;SDS011;2202;50.866;12.750;2023-06-10T01:09:31;20.10;;;18.10;;
4375;SDS011;2202;50.866;12.750;2023-06-10T01:12:08;21.50;;;19.47;;
4375;SDS011;2202;50.866;12.750;2023-06-10T01:14:39;22.20;;;20.10;;
4375;SDS011;2202;50.866;12.750;2023-06-10T01:17:10;20.07;;;18.17;;
4375;SDS011;2202;50.866;12.750;2023-06-10T01:19:37;21.87;;;19.43;;
4375;SDS011;2202;50.866;12.750;2023-06-10T01:22:07;21.83;;;19.63;;
4375;SDS011;2202;50.866;12.750;2023-06-10T01:24:35;19.67;;;17.70;;
4375;SDS011;2202;50.866;12.750;2023-06-10T01:27:05;21.73;;;19.60;;
4375;SDS011;2202;50.866;12.750;2023-06-10T01:29:39;22.77;;;20.50;;
4375;SDS011;2202;50.866;12.750;2023-06-10T01:32:15;20.43;;;18.50;;
4375;SDS011;2202;50.866;12.750;2023-06-10T01:34:47;22.33;;;19.93;;
4375;SDS011;2202;50.866;12.750;2023-06-10T01:37:17;22.93;;;20.53;;
4375;SDS011;2202;50.866;12.750;2023-06-10T01:39:46;22.63;;;20.33;;
4375;SDS011;2202;50.866;12.750;2023-06-10T01:42:13;24.60;;;22.10;;
4375;SDS011;2202;50.866;12.750;2023-06-10T01:44:41;25.60;;;21.43;;
4375;SDS011;2202;50.866;12.750;2023-06-10T01:47:08;23.10;;;20.67;;
4375;SDS011;2202;50.866;12.750;2023-06-10T01:49:35;24.43;;;21.97;;
4375;SDS011;2202;50.866;12.750;2023-06-10T01:52:02;21.50;;;19.57;;
4375;SDS011;2202;50.866;12.750;2023-06-10T01:54:30;22.47;;;20.27;;
4375;SDS011;2202;50.866;12.750;2023-06-10T01:56:59;24.60;;;20.37;;
4375;SDS011;2202;50.866;12.750;2023-06-10T01:59:27;25.10;;;22.17;;
4375;SDS011;2202;50.866;12.750;2023-06-10T02:01:54;23.53;;;21.23;;
4375;SDS011;2202;50.866;12.750;2023-06-10T02:04:20;26.03;;;21.83;;
4375;SDS011;2202;50.866;12.750;2023-06-10T02:06:48;23.47;;;18.67;;
4375;SDS011;2202;50.866;12.750;2023-06-10T02:09:15;22.87;;;20.63;;
4375;SDS011;2202;50.866;12.750;2023-06-10T02:11:44;21.53;;;19.47;;
4375;SDS011;2202;50.866;12.750;2023-06-10T02:14:11;22.57;;;20.27;;
4375;SDS011;2202;50.866;12.750;2023-06-10T02:16:38;22.90;;;20.50;;
4375;SDS011;2202;50.866;12.750;2023-06-10T02:19:05;22.73;;;20.53;;
4375;SDS011;2202;50.866;12.750;2023-06-10T02:21:32;23.73;;;21.10;;
4375;SDS011;2202;50.866;12.750;2023-06-10T02:24:00;22.27;;;20.00;;
4375;SDS011;2202;50.866;12.750;2023-06-10T02:26:27;23.40;;;21.10;;
4375;SDS011;2202;50.866;12.750;2023-06-10T02:28:55;24.23;;;21.63;;
4375;SDS011;2202;50.866;12.750;2023-06-10T02:31:22;24.20;;;21.77;;
4375;SDS011;2202;50.866;12.750;2023-06-10T02:33:50;24.03;;;21.00;;
4375;SDS011;2202;50.866;12.750;2023-06-10T02:36:17;23.00;;;20.13;;
4375;SDS011;2202;50.866;12.750;2023-06-10T02:38:43;24.37;;;21.60;;
4375;SDS011;2202;50.866;12.750;2023-06-10T02:41:10;23.17;;;19.40;;
4375;SDS011;2202;50.866;12.750;2023-06-10T02:43:37;22.43;;;20.33;;
4375;SDS011;2202;50.866;12.750;2023-06-10T02:46:05;26.07;;;23.30;;
4375;SDS011;2202;50.866;12.750;2023-06-10T02:48:34;23.50;;;21.10;;
4375;SDS011;2202;50.866;12.750;2023-06-10T02:51:07;26.20;;;23.30;;
4375;SDS011;2202;50.866;12.750;2023-06-10T02:53:34;25.30;;;20.60;;
4375;SDS011;2202;50.866;12.750;2023-06-10T02:56:00;22.90;;;20.60;;
4375;SDS011;2202;50.866;12.750;2023-06-10T02:58:28;23.47;;;21.07;;
4375;SDS011;2202;50.866;12.750;2023-06-10T03:00:54;22.17;;;20.00;;
4375;SDS011;2202;50.866;12.750;2023-06-10T03:03:23;24.23;;;21.73;;
4375;SDS011;2202;50.866;12.750;2023-06-10T03:05:50;24.20;;;21.70;;
4375;SDS011;2202;50.866;12.750;2023-06-10T03:08:17;22.97;;;20.77;;
4375;SDS011;2202;50.866;12.750;2023-06-10T03:10:44;21.50;;;19.40;;
4375;SDS011;2202;50.866;12.750;2023-06-10T03:13:11;22.50;;;20.10;;
4375;SDS011;2202;50.866;12.750;2023-06-10T03:15:39;23.83;;;21.50;;
4375;SDS011;2202;50.866;12.750;2023-06-10T03:18:06;22.13;;;19.97;;
4375;SDS011;2202;50.866;12.750;2023-06-10T03:20:35;25.23;;;21.50;;
4375;SDS011;2202;50.866;12.750;2023-06-10T03:23:03;21.57;;;19.37;;
4375;SDS011;2202;50.866;12.750;2023-06-10T03:25:31;24.60;;;22.10;;
4375;SDS011;2202;50.866;12.750;2023-06-10T03:27:58;23.87;;;21.37;;
4375;SDS011;2202;50.866;12.750;2023-06-10T03:30:25;24.03;;;21.67;;
4375;SDS011;2202;50.866;12.750;2023-06-10T03:32:51;25.23;;;21.70;;
4375;SDS011;2202;50.866;12.750;2023-06-10T03:35:18;23.80;;;20.87;;
4375;SDS011;2202;50.866;12.750;2023-06-10T03:37:47;25.60;;;20.60;;
4375;SDS011;2202;50.866;12.750;2023-06-10T03:40:14;23.43;;;20.93;;
4375;SDS011;2202;50.866;12.750;2023-06-10T03:42:41;23.00;;;20.53;;
4375;SDS011;2202;50.866;12.750;2023-06-10T03:45:09;24.90;;;20.43;;
4375;SDS011;2202;50.866;12.750;2023-06-10T03:47:37;23.20;;;20.80;;
4375;SDS011;2202;50.866;12.750;2023-06-10T03:50:05;21.30;;;19.10;;
4375;SDS011;2202;50.866;12.750;2023-06-10T03:52:34;23.03;;;20.53;;
4375;SDS011;2202;50.866;12.750;2023-06-10T03:55:02;22.53;;;20.03;;
4375;SDS011;2202;50.866;12.750;2023-06-10T03:57:30;21.30;;;19.30;;
4375;SDS011;2202;50.866;12.750;2023-06-10T03:59:57;22.40;;;20.10;;
4375;SDS011;2202;50.866;12.750;2023-06-10T04:02:24;21.97;;;19.77;;
4375;SDS011;2202;50.866;12.750;2023-06-10T04:04:51;22.37;;;20.07;;
4375;SDS011;2202;50.866;12.750;2023-06-10T04:07:18;22.40;;;20.20;;
4375;SDS011;2202;50.866;12.750;2023-06-10T04:09:45;22.17;;;19.97;;
4375;SDS011;2202;50.866;12.750;2023-06-10T04:12:14;20.60;;;18.60;;
4375;SDS011;2202;50.866;12.750;2023-06-10T04:14:41;19.77;;;17.80;;
4375;SDS011;2202;50.866;12.750;2023-06-10T04:17:08;22.60;;;20.30;;
4375;SDS011;2202;50.866;12.750;2023-06-10T04:19:35;22.03;;;19.30;;
4375;SDS011;2202;50.866;12.750;2023-06-10T04:22:02;22.17;;;19.93;;
4375;SDS011;2202;50.866;12.750;2023-06-10T04:24:30;22.80;;;20.57;;
4375;SDS011;2202;50.866;12.750;2023-06-10T04:26:57;23.17;;;20.67;;
4375;SDS011;2202;50.866;12.750;2023-06-10T04:29:25;23.17;;;19.70;;
4375;SDS011;2202;50.866;12.750;2023-06-10T04:31:52;21.73;;;19.60;;
4375;SDS011;2202;50.866;12.750;2023-06-10T04:34:19;21.93;;;19.83;;
4375;SDS011;2202;50.866;12.750;2023-06-10T04:36:46;23.57;;;21.17;;
4375;SDS011;2202;50.866;12.750;2023-06-10T04:39:12;22.33;;;19.90;;
4375;SDS011;2202;50.866;12.750;2023-06-10T04:41:41;23.23;;;20.80;;
4375;SDS011;2202;50.866;12.750;2023-06-10T04:44:08;23.60;;;21.30;;
4375;SDS011;2202;50.866;12.750;2023-06-10T04:46:37;25.20;;;22.43;;
4375;SDS011;2202;50.866;12.750;2023-06-10T04:49:04;22.97;;;20.80;;
4375;SDS011;2202;50.866;12.750;2023-06-10T04:51:31;25.07;;;22.70;;
4375;SDS011;2202;50.866;12.750;2023-06-10T04:53:58;23.63;;;21.13;;
4375;SDS011;2202;50.866;12.750;2023-06-10T04:56:27;23.97;;;21.60;;
4375;SDS011;2202;50.866;12.750;2023-06-10T04:58:55;25.77;;;22.60;;
4375;SDS011;2202;50.866;12.750;2023-06-10T05:01:22;26.53;;;23.80;;
4375;SDS011;2202;50.866;12.750;2023-06-10T05:03:50;24.60;;;22.00;;
4375;SDS011;2202;50.866;12.750;2023-06-10T05:06:17;25.20;;;22.07;;
4375;SDS011;2202;50.866;12.750;2023-06-10T05:08:44;22.47;;;20.17;;
4375;SDS011;2202;50.866;12.750;2023-06-10T05:11:10;23.33;;;20.77;;
4375;SDS011;2202;50.866;12.750;2023-06-10T05:13:37;25.60;;;23.10;;
4375;SDS011;2202;50.866;12.750;2023-06-10T05:16:05;23.87;;;21.27;;
4375;SDS011;2202;50.866;12.750;2023-06-10T05:18:32;24.53;;;21.70;;
4375;SDS011;2202;50.866;12.750;2023-06-10T05:21:01;22.23;;;20.00;;
4375;SDS011;2202;50.866;12.750;2023-06-10T05:23:28;23.87;;;21.50;;
4375;SDS011;2202;50.866;12.750;2023-06-10T05:25:55;21.70;;;19.60;;
4375;SDS011;2202;50.866;12.750;2023-06-10T05:28:23;22.80;;;20.30;;
4375;SDS011;2202;50.866;12.750;2023-06-10T05:30:50;24.67;;;22.30;;
4375;SDS011;2202;50.866;12.750;2023-06-10T05:33:17;23.57;;;21.27;;
4375;SDS011;2202;50.866;12.750;2023-06-10T05:35:44;22.80;;;20.50;;
4375;SDS011;2202;50.866;12.750;2023-06-10T05:38:12;24.83;;;22.13;;
4375;SDS011;2202;50.866;12.750;2023-06-10T05:40:39;26.13;;;23.53;;
4375;SDS011;2202;50.866;12.750;2023-06-10T05:43:06;25.63;;;22.60;;
4375;SDS011;2202;50.866;12.750;2023-06-10T05:45:34;24.67;;;22.10;;
4375;SDS011;2202;50.866;12.750;2023-06-10T05:48:01;31.13;;;21.87;;
4375;SDS011;2202;50.866;12.750;2023-06-10T05:50:28;24.63;;;22.20;;
4375;SDS011;2202;50.866;12.750;2023-06-10T05:52:55;22.23;;;20.03;;
4375;SDS011;2202;50.866;12.750;2023-06-10T05:55:24;24.13;;;21.83;;
4375;SDS011;2202;50.866;12.750;2023-06-10T05:57:57;25.10;;;22.00;;
4375;SDS011;2202;50.866;12.750;2023-06-10T06:00:25;23.60;;;21.10;;
4375;SDS011;2202;50.866;12.750;2023-06-10T06:02:52;25.83;;;22.20;;
4375;SDS011;2202;50.866;12.750;2023-06-10T06:05:20;25.23;;;22.60;;
4375;SDS011;2202;50.866;12.750;2023-06-10T06:07:47;25.03;;;22.53;;
4375;SDS011;2202;50.866;12.750;2023-06-10T06:10:14;23.67;;;21.20;;
4375;SDS011;2202;50.866;12.750;2023-06-10T06:12:44;23.97;;;21.47;;
4375;SDS011;2202;50.866;12.750;2023-06-10T06:15:11;24.00;;;21.40;;
4375;SDS011;2202;50.866;12.750;2023-06-10T06:17:38;22.57;;;19.60;;
4375;SDS011;2202;50.866;12.750;2023-06-10T06:20:05;23.87;;;20.87;;
4375;SDS011;2202;50.866;12.750;2023-06-10T06:22:33;24.90;;;22.40;;
4375;SDS011;2202;50.866;12.750;2023-06-10T06:25:01;22.40;;;20.10;;
4375;SDS011;2202;50.866;12.750;2023-06-10T06:27:27;22.60;;;20.50;;
4375;SDS011;2202;50.866;12.750;2023-06-10T06:29:56;24.37;;;21.83;;
4375;SDS011;2202;50.866;12.750;2023-06-10T06:32:22;21.20;;;19.13;;
4375;SDS011;2202;50.866;12.750;2023-06-10T06:34:52;21.70;;;19.70;;
4375;SDS011;2202;50.866;12.750;2023-06-10T06:37:20;21.63;;;19.53;;
4375;SDS011;2202;50.866;12.750;2023-06-10T06:39:47;21.20;;;19.20;;
4375;SDS011;2202;50.866;12.750;2023-06-10T06:42:14;23.10;;;19.10;;
4375;SDS011;2202;50.866;12.750;2023-06-10T06:44:41;19.53;;;17.70;;
4375;SDS011;2202;50.866;12.750;2023-06-10T06:47:10;19.20;;;16.80;;
4375;SDS011;2202;50.866;12.750;2023-06-10T06:49:37;20.90;;;18.90;;
4375;SDS011;2202;50.866;12.750;2023-06-10T06:52:04;18.93;;;17.03;;
4375;SDS011;2202;50.866;12.750;2023-06-10T06:54:31;19.87;;;17.97;;
4375;SDS011;2202;50.866;12.750;2023-06-10T06:56:57;24.23;;;18.87;;
4375;SDS011;2202;50.866;12.750;2023-06-10T06:59:25;18.20;;;16.50;;
4375;SDS011;2202;50.866;12.750;2023-06-10T07:01:51;19.87;;;18.10;;
4375;SDS011;2202;50.866;12.750;2023-06-10T07:04:21;21.00;;;18.80;;
4375;SDS011;2202;50.866;12.750;2023-06-10T07:06:47;19.97;;;17.97;;
4375;SDS011;2202;50.866;12.750;2023-06-10T07:09:14;18.87;;;17.13;;
4375;SDS011;2202;50.866;12.750;2023-06-10T07:11:41;18.80;;;16.77;;
4375;SDS011;2202;50.866;12.750;2023-06-10T07:14:08;19.50;;;17.40;;
4375;SDS011;2202;50.866;12.750;2023-06-10T07:16:35;17.13;;;15.27;;
4375;SDS011;2202;50.866;12.750;2023-06-10T07:19:02;18.10;;;15.53;;
4375;SDS011;2202;50.866;12.750;2023-06-10T07:21:30;20.53;;;16.00;;
4375;SDS011;2202;50.866;12.750;2023-06-10T07:23:58;18.87;;;16.00;;
4375;SDS011;2202;50.866;12.750;2023-06-10T07:26:25;19.30;;;17.20;;
4375;SDS011;2202;50.866;12.750;2023-06-10T07:28:52;18.53;;;16.67;;
4375;SDS011;2202;50.866;12.750;2023-06-10T07:31:19;18.70;;;16.80;;
4375;SDS011;2202;50.866;12.750;2023-06-10T07:33:46;23.30;;;16.87;;
4375;SDS011;2202;50.866;12.750;2023-06-10T07:36:13;18.83;;;17.03;;
4375;SDS011;2202;50.866;12.750;2023-06-10T07:38:41;17.37;;;15.73;;
4375;SDS011;2202;50.866;12.750;2023-06-10T07:41:08;18.47;;;16.67;;
4375;SDS011;2202;50.866;12.750;2023-06-10T07:43:36;19.63;;;17.40;;
4375;SDS011;2202;50.866;12.750;2023-06-10T07:46:03;18.70;;;16.90;;
4375;SDS011;2202;50.866;12.750;2023-06-10T07:48:30;21.70;;;16.53;;
4375;SDS011;2202;50.866;12.750;2023-06-10T07:50:57;17.20;;;15.57;;
4375;SDS011;2202;50.866;12.750;2023-06-10T07:53:24;20.67;;;16.83;;
4375;SDS011;2202;50.866;12.750;2023-06-10T07:55:52;21.10;;;16.27;;
4375;SDS011;2202;50.866;12.750;2023-06-10T07:58:19;20.07;;;16.30;;
4375;SDS011;2202;50.866;12.750;2023-06-10T08:00:47;18.70;;;16.70;;
4375;SDS011;2202;50.866;12.750;2023-06-10T08:03:14;20.43;;;16.80;;
4375;SDS011;2202;50.866;12.750;2023-06-10T08:05:41;19.27;;;17.27;;
4375;SDS011;2202;50.866;12.750;2023-06-10T08:08:07;20.23;;;16.50;;
4375;SDS011;2202;50.866;12.750;2023-06-10T08:10:35;17.10;;;15.40;;
4375;SDS011;2202;50.866;12.750;2023-06-10T08:13:03;17.97;;;16.17;;
4375;SDS011;2202;50.866;12.750;2023-06-10T08:15:30;16.10;;;14.37;;
4375;SDS011;2202;50.866;12.750;2023-06-10T08:17:57;16.27;;;14.57;;
4375;SDS011;2202;50.866;12.750;2023-06-10T08:20:23;17.67;;;14.40;;
4375;SDS011;2202;50.866;12.750;2023-06-10T08:22:50;19.57;;;13.90;;
4375;SDS011;2202;50.866;12.750;2023-06-10T08:25:17;15.90;;;13.73;;
4375;SDS011;2202;50.866;12.750;2023-06-10T08:27:46;16.87;;;14.30;;
4375;SDS011;2202;50.866;12.750;2023-06-10T08:30:15;18.73;;;14.60;;
4375;SDS011;2202;50.866;12.750;2023-06-10T08:32:41;14.47;;;12.97;;
4375;SDS011;2202;50.866;12.750;2023-06-10T08:35:08;15.67;;;13.90;;
4375;SDS011;2202;50.866;12.750;2023-06-10T08:37:36;19.03;;;13.43;;
4375;SDS011;2202;50.866;12.750;2023-06-10T08:40:03;14.37;;;12.10;;
4375;SDS011;2202;50.866;12.750;2023-06-10T08:42:33;17.40;;;12.50;;
4375;SDS011;2202;50.866;12.750;2023-06-10T08:45:01;16.33;;;12.57;;
4375;SDS011;2202;50.866;12.750;2023-06-10T08:47:32;14.73;;;11.43;;
4375;SDS011;2202;50.866;12.750;2023-06-10T08:50:02;13.83;;;12.33;;
4375;SDS011;2202;50.866;12.750;2023-06-10T08:52:33;15.20;;;12.10;;
4375;SDS011;2202;50.866;12.750;2023-06-10T08:55:03;13.30;;;11.90;;
4375;SDS011;2202;50.866;12.750;2023-06-10T08:57:33;15.40;;;12.50;;
4375;SDS011;2202;50.866;12.750;2023-06-10T09:00:00;14.23;;;11.13;;
4375;SDS011;2202;50.866;12.750;2023-06-10T09:02:28;13.50;;;12.00;;
4375;SDS011;2202;50.866;12.750;2023-06-10T09:04:57;16.40;;;12.67;;
4375;SDS011;2202;50.866;12.750;2023-06-10T09:07:24;13.83;;;12.40;;
4375;SDS011;2202;50.866;12.750;2023-06-10T09:09:52;17.87;;;13.70;;
4375;SDS011;2202;50.866;12.750;2023-06-10T09:12:20;14.50;;;12.70;;
4375;SDS011;2202;50.866;12.750;2023-06-10T09:14:47;17.97;;;13.93;;
4375;SDS011;2202;50.866;12.750;2023-06-10T09:17:16;15.33;;;12.83;;
4375;SDS011;2202;50.866;12.750;2023-06-10T09:19:43;16.07;;;11.57;;
4375;SDS011;2202;50.866;12.750;2023-06-10T09:22:12;16.53;;;11.93;;
4375;SDS011;2202;50.866;12.750;2023-06-10T09:24:39;12.97;;;11.40;;
4375;SDS011;2202;50.866;12.750;2023-06-10T09:27:07;15.70;;;11.30;;
4375;SDS011;2202;50.866;12.750;2023-06-10T09:29:44;16.00;;;14.10;;
4375;SDS011;2202;50.866;12.750;2023-06-10T09:32:13;15.03;;;12.13;;
4375;SDS011;2202;50.866;12.750;2023-06-10T09:34:40;14.83;;;12.20;;
4375;SDS011;2202;50.866;12.750;2023-06-10T09:37:07;12.83;;;11.40;;
4375;SDS011;2202;50.866;12.750;2023-06-10T09:39:38;14.10;;;10.40;;
4375;SDS011;2202;50.866;12.750;2023-06-10T09:42:15;18.60;;;10.37;;
4375;SDS011;2202;50.866;12.750;2023-06-10T09:44:46;11.70;;;10.50;;
4375;SDS011;2202;50.866;12.750;2023-06-10T09:47:19;12.10;;;10.77;;
4375;SDS011;2202;50.866;12.750;2023-06-10T09:49:47;14.47;;;11.60;;
4375;SDS011;2202;50.866;12.750;2023-06-10T09:52:14;12.30;;;10.87;;
4375;SDS011;2202;50.866;12.750;2023-06-10T09:54:49;11.83;;;10.03;;
4375;SDS011;2202;50.866;12.750;2023-06-10T09:57:17;15.10;;;10.90;;
4375;SDS011;2202;50.866;12.750;2023-06-10T09:59:44;12.47;;;10.87;;
4375;SDS011;2202;50.866;12.750;2023-06-10T10:02:13;13.97;;;10.27;;
4375;SDS011;2202;50.866;12.750;2023-06-10T10:04:41;11.60;;;10.10;;
4375;SDS011;2202;50.866;12.750;2023-06-10T10:07:08;10.70;;;9.50;;
4375;SDS011;2202;50.866;12.750;2023-06-10T10:09:35;11.50;;;10.30;;
4375;SDS011;2202;50.866;12.750;2023-06-10T10:12:05;11.00;;;9.90;;
4375;SDS011;2202;50.866;12.750;2023-06-10T10:14:36;12.13;;;9.50;;
4375;SDS011;2202;50.866;12.750;2023-06-10T10:17:04;10.37;;;9.27;;
4375;SDS011;2202;50.866;12.750;2023-06-10T10:19:37;8.93;;;7.67;;
4375;SDS011;2202;50.866;12.750;2023-06-10T10:22:14;9.13;;;8.20;;
4375;SDS011;2202;50.866;12.750;2023-06-10T10:24:46;9.60;;;8.60;;
4375;SDS011;2202;50.866;12.750;2023-06-10T10:27:21;12.03;;;7.80;;
4375;SDS011;2202;50.866;12.750;2023-06-10T10:29:53;9.57;;;8.57;;
4375;SDS011;2202;50.866;12.750;2023-06-10T10:32:21;13.67;;;10.27;;
4375;SDS011;2202;50.866;12.750;2023-06-10T10:34:56;11.90;;;10.13;;
4375;SDS011;2202;50.866;12.750;2023-06-10T10:37:27;11.20;;;10.00;;
4375;SDS011;2202;50.866;12.750;2023-06-10T10:39:54;11.47;;;10.37;;
4375;SDS011;2202;50.866;12.750;2023-06-10T10:42:25;11.30;;;10.20;;
4375;SDS011;2202;50.866;12.750;2023-06-10T10:44:52;10.63;;;9.53;;
4375;SDS011;2202;50.866;12.750;2023-06-10T10:47:20;13.03;;;10.07;;
4375;SDS011;2202;50.866;12.750;2023-06-10T10:49:48;12.20;;;10.30;;
4375;SDS011;2202;50.866;12.750;2023-06-10T10:52:18;13.00;;;9.60;;
4375;SDS011;2202;50.866;12.750;2023-06-10T10:54:45;12.93;;;9.67;;
4375;SDS011;2202;50.866;12.750;2023-06-10T10:57:14;12.30;;;10.03;;
4375;SDS011;2202;50.866;12.750;2023-06-10T11:02:34;10.87;;;9.30;;
4375;SDS011;2202;50.866;12.750;2023-06-10T11:05:04;10.90;;;9.70;;
4375;SDS011;2202;50.866;12.750;2023-06-10T11:07:31;10.77;;;9.10;;
4375;SDS011;2202;50.866;12.750;2023-06-10T11:09:59;11.07;;;9.90;;
4375;SDS011;2202;50.866;12.750;2023-06-10T11:12:40;14.40;;;9.70;;
4375;SDS011;2202;50.866;12.750;2023-06-10T11:15:09;15.50;;;9.40;;
4375;SDS011;2202;50.866;12.750;2023-06-10T11:17:36;10.20;;;8.97;;
4375;SDS011;2202;50.866;12.750;2023-06-10T11:20:03;8.83;;;7.93;;
4375;SDS011;2202;50.866;12.750;2023-06-10T11:22:32;10.63;;;8.20;;
4375;SDS011;2202;50.866;12.750;2023-06-10T11:24:59;9.47;;;8.13;;
4375;SDS011;2202;50.866;12.750;2023-06-10T11:27:26;8.60;;;7.80;;
4375;SDS011;2202;50.866;12.750;2023-06-10T11:32:52;9.50;;;8.60;;
4375;SDS011;2202;50.866;12.750;2023-06-10T11:35:19;9.63;;;8.63;;
4375;SDS011;2202;50.866;12.750;2023-06-10T11:37:47;10.33;;;9.43;;
4375;SDS011;2202;50.866;12.750;2023-06-10T11:40:14;10.73;;;9.63;;
4375;SDS011;2202;50.866;12.750;2023-06-10T11:42:42;10.77;;;7.97;;
4375;SDS011;2202;50.866;12.750;2023-06-10T11:45:09;12.00;;;8.07;;
4375;SDS011;2202;50.866;12.750;2023-06-10T11:47:42;9.23;;;8.27;;
4375;SDS011;2202;50.866;12.750;2023-06-10T11:50:27;9.23;;;7.97;;
4375;SDS011;2202;50.866;12.750;2023-06-10T11:52:54;9.60;;;8.60;;
4375;SDS011;2202;50.866;12.750;2023-06-10T11:55:23;10.73;;;7.90;;
4375;SDS011;2202;50.866;12.750;2023-06-10T11:57:50;11.73;;;8.40;;
4375;SDS011;2202;50.866;12.750;2023-06-10T12:00:22;8.33;;;7.53;;
4375;SDS011;2202;50.866;12.750;2023-06-10T12:02:55;9.10;;;8.20;;
4375;SDS011;2202;50.866;12.750;2023-06-10T12:05:24;9.07;;;8.17;;
4375;SDS011;2202;50.866;12.750;2023-06-10T12:10:39;9.37;;;8.43;;
4375;SDS011;2202;50.866;12.750;2023-06-10T12:13:08;8.70;;;7.80;;
4375;SDS011;2202;50.866;12.750;2023-06-10T12:15:35;9.33;;;7.70;;
4375;SDS011;2202;50.866;12.750;2023-06-10T12:18:03;8.70;;;7.80;;
4375;SDS011;2202;50.866;12.750;2023-06-10T12:20:31;9.33;;;8.43;;
4375;SDS011;2202;50.866;12.750;2023-06-10T12:22:59;8.20;;;7.40;;
4375;SDS011;2202;50.866;12.750;2023-06-10T12:25:27;9.13;;;8.27;;
4375;SDS011;2202;50.866;12.750;2023-06-10T12:27:55;8.40;;;7.63;;
4375;SDS011;2202;50.866;12.750;2023-06-10T12:30:24;8.93;;;8.23;;
4375;SDS011;2202;50.866;12.750;2023-06-10T12:32:52;9.97;;;9.07;;
4375;SDS011;2202;50.866;12.750;2023-06-10T12:35:22;10.03;;;8.57;;
4375;SDS011;2202;50.866;12.750;2023-06-10T12:37:56;9.73;;;8.77;;
4375;SDS011;2202;50.866;12.750;2023-06-10T12:40:26;9.30;;;8.40;;
4375;SDS011;2202;50.866;12.750;2023-06-10T12:42:54;9.33;;;8.33;;
4375;SDS011;2202;50.866;12.750;2023-06-10T12:45:26;9.60;;;8.60;;
4375;SDS011;2202;50.866;12.750;2023-06-10T12:48:03;8.40;;;7.60;;
4375;SDS011;2202;50.866;12.750;2023-06-10T12:50:33;7.97;;;7.27;;
4375;SDS011;2202;50.866;12.750;2023-06-10T12:52:59;7.90;;;7.30;;
4375;SDS011;2202;50.866;12.750;2023-06-10T12:55:26;9.30;;;8.30;;
4375;SDS011;2202;50.866;12.750;2023-06-10T12:57:54;11.80;;;9.10;;
4375;SDS011;2202;50.866;12.750;2023-06-10T13:00:21;8.00;;;7.20;;
4375;SDS011;2202;50.866;12.750;2023-06-10T13:02:50;12.20;;;7.20;;
4375;SDS011;2202;50.866;12.750;2023-06-10T13:05:17;8.13;;;7.43;;
4375;SDS011;2202;50.866;12.750;2023-06-10T13:07:46;9.10;;;8.30;;
4375;SDS011;2202;50.866;12.750;2023-06-10T13:10:14;9.47;;;7.40;;
4375;SDS011;2202;50.866;12.750;2023-06-10T13:12:41;11.00;;;7.43;;
4375;SDS011;2202;50.866;12.750;2023-06-10T13:15:08;8.47;;;7.67;;
4375;SDS011;2202;50.866;12.750;2023-06-10T13:17:36;8.23;;;7.27;;
4375;SDS011;2202;50.866;12.750;2023-06-10T13:20:04;9.07;;;8.17;;
4375;SDS011;2202;50.866;12.750;2023-06-10T13:22:33;9.70;;;8.70;;
4375;SDS011;2202;50.866;12.750;2023-06-10T13:25:03;8.60;;;7.10;;
4375;SDS011;2202;50.866;12.750;2023-06-10T13:27:31;10.50;;;9.40;;
4375;SDS011;2202;50.866;12.750;2023-06-10T13:29:59;10.20;;;8.53;;
4375;SDS011;2202;50.866;12.750;2023-06-10T13:32:26;9.10;;;8.20;;
4375;SDS011;2202;50.866;12.750;2023-06-10T13:34:52;9.80;;;8.97;;
4375;SDS011;2202;50.866;12.750;2023-06-10T13:37:19;13.70;;;9.37;;
4375;SDS011;2202;50.866;12.750;2023-06-10T13:39:46;8.63;;;7.83;;
4375;SDS011;2202;50.866;12.750;2023-06-10T13:42:17;10.07;;;8.40;;
4375;SDS011;2202;50.866;12.750;2023-06-10T13:44:43;8.83;;;8.00;;
4375;SDS011;2202;50.866;12.750;2023-06-10T13:47:12;9.07;;;8.27;;
4375;SDS011;2202;50.866;12.750;2023-06-10T13:49:39;8.43;;;7.70;;
4375;SDS011;2202;50.866;12.750;2023-06-10T13:52:06;9.63;;;8.60;;
4375;SDS011;2202;50.866;12.750;2023-06-10T13:54:33;10.23;;;7.63;;
4375;SDS011;2202;50.866;12.750;2023-06-10T13:57:01;8.03;;;7.33;;
4375;SDS011;2202;50.866;12.750;2023-06-10T13:59:30;8.67;;;7.90;;
4375;SDS011;2202;50.866;12.750;2023-06-10T14:01:57;8.43;;;7.60;;
4375;SDS011;2202;50.866;12.750;2023-06-10T14:04:24;7.77;;;6.90;;
4375;SDS011;2202;50.866;12.750;2023-06-10T14:06:50;8.67;;;7.87;;
4375;SDS011;2202;50.866;12.750;2023-06-10T14:09:17;8.30;;;7.00;;
4375;SDS011;2202;50.866;12.750;2023-06-10T14:11:44;9.33;;;8.53;;
4375;SDS011;2202;50.866;12.750;2023-06-10T14:14:12;7.07;;;6.37;;
4375;SDS011;2202;50.866;12.750;2023-06-10T14:16:41;11.50;;;7.93;;
4375;SDS011;2202;50.866;12.750;2023-06-10T14:19:08;9.17;;;8.27;;
4375;SDS011;2202;50.866;12.750;2023-06-10T14:21:35;10.17;;;7.93;;
4375;SDS011;2202;50.866;12.750;2023-06-10T14:24:02;11.93;;;8.80;;
4375;SDS011;2202;50.866;12.750;2023-06-10T14:26:28;9.97;;;9.17;;
4375;SDS011;2202;50.866;12.750;2023-06-10T14:28:57;8.40;;;7.60;;
4375;SDS011;2202;50.866;12.750;2023-06-10T14:31:24;9.57;;;8.77;;
4375;SDS011;2202;50.866;12.750;2023-06-10T14:33:52;9.57;;;8.07;;
4375;SDS011;2202;50.866;12.750;2023-06-10T14:36:19;8.67;;;7.63;;
4375;SDS011;2202;50.866;12.750;2023-06-10T14:38:46;8.30;;;7.50;;
4375;SDS011;2202;50.866;12.750;2023-06-10T14:41:13;8.40;;;7.60;;
4375;SDS011;2202;50.866;12.750;2023-06-10T14:43:40;8.17;;;7.20;;
4375;SDS011;2202;50.866;12.750;2023-06-10T14:46:06;8.10;;;7.30;;
4375;SDS011;2202;50.866;12.750;2023-06-10T14:48:33;9.90;;;8.00;;
4375;SDS011;2202;50.866;12.750;2023-06-10T14:51:02;6.90;;;6.40;;
4375;SDS011;2202;50.866;12.750;2023-06-10T14:53:29;10.30;;;8.33;;